Blue Goose, West Virginia
Current Conditions -  °F | °C
As of 9:53 AM on Thursday 30 Oct 2014 (Local Time) from KPKB Reporting Station
Scattered Clouds Scattered Clouds  
Wind Chill: 40°   Ceiling: Unl
Heat Index: 43°   Visibility: 10mi
Dew Point: 36°   Wind: 5mph
Humidity: 76%   Direction: 320°NW
Pressure: 30.18"   Gusts: NA
Location:  38.9676°N, 81.429°W
Report Text: KPKB 301353Z 32004KT 10SM SCT050 06/02 A3018 RMK AO2 SLP221 T00610022
Loading
Personal Weather Stations






























Interactive Weather Map
Tropical Storm Tracking
New forecast layout! Learn more

10-Day Weather Forecast

Advertisements
Track Severe Weather on mobile